createdAt,value
2019-05-29T00:00:26.588Z,0.00
2019-05-29T00:01:26.550Z,0.00
2019-05-29T00:02:26.570Z,0.00
2019-05-29T00:03:26.530Z,0.00
2019-05-29T00:04:26.518Z,0.00
2019-05-29T00:05:26.532Z,0.00
2019-05-29T00:06:26.496Z,0.00
2019-05-29T00:07:26.491Z,0.00
2019-05-29T00:08:26.470Z,0.00
2019-05-29T00:09:26.463Z,0.00
2019-05-29T00:10:26.456Z,0.00
2019-05-29T00:11:26.460Z,0.00
2019-05-29T00:12:26.424Z,0.00
2019-05-29T00:13:26.414Z,0.00
2019-05-29T00:14:27.617Z,0.00
2019-05-29T00:15:26.390Z,0.00
2019-05-29T00:16:26.394Z,0.00
2019-05-29T00:17:26.398Z,0.00
2019-05-29T00:18:26.360Z,0.00
2019-05-29T00:19:26.346Z,0.00
2019-05-29T00:20:26.348Z,0.00
2019-05-29T00:21:26.318Z,0.00
2019-05-29T00:22:26.328Z,0.00
2019-05-29T00:23:26.302Z,0.00
2019-05-29T00:24:26.315Z,0.00
2019-05-29T00:25:26.298Z,0.00
2019-05-29T00:26:26.270Z,0.00
2019-05-29T00:27:26.264Z,0.00
2019-05-29T00:28:26.259Z,0.00
2019-05-29T00:29:26.249Z,0.00
2019-05-29T00:30:26.224Z,0.00
2019-05-29T00:31:26.212Z,0.00
2019-05-29T00:32:26.196Z,0.00
2019-05-29T00:33:26.207Z,0.00
2019-05-29T00:34:26.183Z,0.00
2019-05-29T00:35:26.184Z,0.00
2019-05-29T00:36:26.152Z,0.00
2019-05-29T00:37:26.148Z,0.00
2019-05-29T00:38:26.139Z,0.00
2019-05-29T00:39:26.118Z,0.00
2019-05-29T00:40:26.107Z,0.00
2019-05-29T00:41:26.096Z,0.00
2019-05-29T00:42:26.091Z,0.00
2019-05-29T00:43:26.072Z,0.00
2019-05-29T00:44:34.277Z,0.00
2019-05-29T00:45:27.055Z,0.00
2019-05-29T00:46:26.048Z,0.00
2019-05-29T00:47:26.028Z,0.00
2019-05-29T00:48:26.018Z,0.00
2019-05-29T00:49:26.015Z,0.00
2019-05-29T00:50:26.010Z,0.00
2019-05-29T00:51:25.982Z,0.00
2019-05-29T00:52:25.977Z,0.00
2019-05-29T00:53:25.957Z,0.00
2019-05-29T00:54:25.948Z,0.00
2019-05-29T00:55:25.947Z,0.00
2019-05-29T00:56:25.931Z,0.00
2019-05-29T00:57:25.914Z,0.00
2019-05-29T00:58:25.906Z,0.00
2019-05-29T00:59:25.888Z,0.00
2019-05-29T01:00:25.889Z,0.00
2019-05-29T01:01:25.886Z,0.00
2019-05-29T01:02:25.856Z,0.00
2019-05-29T01:03:25.864Z,0.00
2019-05-29T01:04:25.838Z,0.00
2019-05-29T01:05:25.831Z,0.00
2019-05-29T01:06:25.823Z,0.00
2019-05-29T01:07:25.800Z,0.00
2019-05-29T01:08:25.792Z,0.00
2019-05-29T01:09:25.781Z,0.00
2019-05-29T01:10:25.760Z,0.00
2019-05-29T01:11:25.773Z,0.00
2019-05-29T01:12:25.740Z,0.00
2019-05-29T01:13:25.732Z,0.00
2019-05-29T01:14:25.716Z,0.00
2019-05-29T01:15:25.710Z,0.00
2019-05-29T01:16:25.722Z,0.00
2019-05-29T01:17:25.686Z,0.00
2019-05-29T01:18:25.678Z,0.00
2019-05-29T01:19:25.668Z,0.00
2019-05-29T01:20:25.654Z,0.00
2019-05-29T01:21:25.640Z,0.00
2019-05-29T01:22:25.639Z,0.00
2019-05-29T01:23:25.635Z,0.00
2019-05-29T01:24:25.686Z,0.00
2019-05-29T01:25:25.592Z,0.00
2019-05-29T01:26:25.579Z,0.00
2019-05-29T01:27:25.568Z,0.00
2019-05-29T01:28:25.559Z,0.00
2019-05-29T01:29:25.549Z,0.00
2019-05-29T01:30:25.552Z,0.00
2019-05-29T01:31:25.525Z,0.00
2019-05-29T01:32:25.558Z,0.00
2019-05-29T01:33:25.521Z,0.00
2019-05-29T01:34:25.532Z,0.00
2019-05-29T01:35:25.491Z,0.00
2019-05-29T01:36:25.474Z,0.00
2019-05-29T01:37:26.447Z,0.00
2019-05-29T01:38:25.445Z,0.00
2019-05-29T01:39:25.439Z,0.00
2019-05-29T01:40:28.315Z,0.00
2019-05-29T01:41:25.425Z,0.00
2019-05-29T01:42:25.410Z,0.00
2019-05-29T01:43:25.389Z,0.00
2019-05-29T01:44:25.384Z,0.00
2019-05-29T01:45:25.434Z,0.00
2019-05-29T01:46:25.355Z,0.00
2019-05-29T01:47:25.349Z,0.00
2019-05-29T01:48:25.336Z,0.00
2019-05-29T01:49:25.321Z,0.00
2019-05-29T01:50:25.312Z,0.00
2019-05-29T01:51:25.307Z,0.00
2019-05-29T01:52:25.290Z,0.00
2019-05-29T01:53:25.277Z,0.00
2019-05-29T01:54:25.326Z,0.00
2019-05-29T01:55:25.253Z,0.00
2019-05-29T01:56:25.254Z,0.00
2019-05-29T01:57:25.246Z,0.00
2019-05-29T01:58:25.224Z,0.00
2019-05-29T01:59:25.281Z,0.00
2019-05-29T02:00:25.198Z,0.00
2019-05-29T02:01:25.191Z,0.00
2019-05-29T02:02:25.208Z,0.00
2019-05-29T02:03:25.166Z,0.00
2019-05-29T02:04:25.333Z,4.00
2019-05-29T02:05:25.146Z,4.00
2019-05-29T02:06:25.131Z,4.00
2019-05-29T02:07:25.118Z,4.00
2019-05-29T02:08:25.111Z,4.00
2019-05-29T02:09:25.104Z,0.00
2019-05-29T02:10:26.254Z,4.00
2019-05-29T02:11:25.080Z,4.00
2019-05-29T02:12:25.067Z,4.00
2019-05-29T02:13:25.051Z,4.00
2019-05-29T02:14:25.043Z,4.00
2019-05-29T02:15:32.158Z,4.00
2019-05-29T02:16:26.934Z,8.00
2019-05-29T02:17:25.015Z,4.00
2019-05-29T02:18:25.148Z,8.00
2019-05-29T02:19:25.040Z,4.00
2019-05-29T02:20:25.254Z,8.00
2019-05-29T02:21:24.959Z,8.00
2019-05-29T02:22:25.104Z,8.00
2019-05-29T02:23:24.940Z,8.00
2019-05-29T02:24:25.419Z,12.00
2019-05-29T02:25:24.917Z,12.00
2019-05-29T02:26:24.903Z,12.00
2019-05-29T02:27:25.582Z,12.00
2019-05-29T02:28:24.881Z,16.00
2019-05-29T02:29:24.956Z,16.00
2019-05-29T02:30:27.825Z,16.00
2019-05-29T02:31:27.041Z,20.00
2019-05-29T02:32:25.599Z,20.00
2019-05-29T02:33:26.336Z,20.00
2019-05-29T02:34:25.539Z,24.00
2019-05-29T02:35:26.840Z,28.00
2019-05-29T02:36:26.650Z,28.00
2019-05-29T02:37:26.118Z,32.00
2019-05-29T02:38:25.481Z,36.00
2019-05-29T02:39:25.649Z,36.00
2019-05-29T02:40:26.359Z,40.00
2019-05-29T02:41:26.200Z,44.00
2019-05-29T02:42:25.153Z,44.00
2019-05-29T02:43:26.022Z,52.00
2019-05-29T02:44:25.417Z,56.00
2019-05-29T02:45:45.865Z,64.00
2019-05-29T02:46:26.411Z,68.00
2019-05-29T02:47:26.001Z,76.00
2019-05-29T02:48:25.079Z,80.00
2019-05-29T02:49:25.773Z,84.00
2019-05-29T02:50:26.523Z,88.00
2019-05-29T02:51:26.367Z,88.00
2019-05-29T02:52:26.109Z,92.00
2019-05-29T02:53:26.153Z,96.00
2019-05-29T02:54:25.412Z,96.00
2019-05-29T02:55:24.641Z,100.00
2019-05-29T02:56:24.891Z,108.00
2019-05-29T02:57:24.708Z,116.00
2019-05-29T02:58:25.820Z,120.00
2019-05-29T02:59:25.642Z,128.00
2019-05-29T03:00:25.794Z,136.00
2019-05-29T03:01:25.522Z,140.00
2019-05-29T03:02:25.539Z,156.00
2019-05-29T03:03:26.818Z,172.00
2019-05-29T03:04:26.177Z,188.00
2019-05-29T03:05:25.946Z,204.00
2019-05-29T03:06:26.089Z,272.00
2019-05-29T03:07:26.142Z,460.00
2019-05-29T03:08:24.831Z,396.00
2019-05-29T03:09:24.734Z,292.00
2019-05-29T03:10:24.817Z,296.00
2019-05-29T03:11:25.177Z,296.00
2019-05-29T03:12:25.016Z,492.00
2019-05-29T03:13:25.522Z,620.00
2019-05-29T03:14:25.272Z,356.00
2019-05-29T03:15:25.585Z,316.00
2019-05-29T03:16:26.095Z,336.00
2019-05-29T03:17:25.685Z,364.00
2019-05-29T03:18:25.709Z,384.00
2019-05-29T03:19:25.796Z,404.00
2019-05-29T03:20:25.695Z,428.00
2019-05-29T03:21:25.941Z,456.00
2019-05-29T03:22:24.273Z,480.00
2019-05-29T03:23:24.372Z,504.00
2019-05-29T03:24:24.553Z,532.00
2019-05-29T03:25:24.402Z,576.00
2019-05-29T03:26:26.849Z,680.00
2019-05-29T03:27:25.593Z,724.00
2019-05-29T03:28:25.608Z,820.00
2019-05-29T03:29:25.766Z,744.00
2019-05-29T03:30:26.962Z,752.00
2019-05-29T03:31:29.924Z,796.00
2019-05-29T03:32:28.021Z,844.00
2019-05-29T03:33:30.453Z,864.00
2019-05-29T03:34:30.457Z,884.00
2019-05-29T03:35:28.360Z,932.00
2019-05-29T03:36:28.358Z,960.00
2019-05-29T03:37:26.271Z,1040.00
2019-05-29T03:38:24.085Z,1024.00
2019-05-29T03:39:24.080Z,1072.00
2019-05-29T03:40:24.067Z,1016.00
2019-05-29T03:41:24.059Z,1016.00
2019-05-29T03:42:24.059Z,1028.00
2019-05-29T03:43:24.141Z,1044.00
2019-05-29T03:44:24.017Z,1076.00
2019-05-29T03:45:24.010Z,1108.00
2019-05-29T03:46:31.600Z,1132.00
2019-05-29T03:47:26.787Z,1140.00
2019-05-29T03:48:25.821Z,1148.00
2019-05-29T03:49:23.969Z,1164.00
2019-05-29T03:50:23.951Z,1172.00
2019-05-29T03:51:23.943Z,1176.00
2019-05-29T03:52:23.955Z,1152.00
2019-05-29T03:53:23.931Z,1120.00
2019-05-29T03:54:23.924Z,1088.00
2019-05-29T03:55:23.896Z,1072.00
2019-05-29T03:56:23.895Z,1052.00
2019-05-29T03:57:23.869Z,1024.00
2019-05-29T03:58:23.867Z,1004.00
2019-05-29T03:59:23.875Z,996.00
2019-05-29T04:00:23.845Z,1004.00
2019-05-29T04:01:23.879Z,1028.00
2019-05-29T04:02:23.821Z,1060.00
2019-05-29T04:03:23.809Z,1080.00
2019-05-29T04:04:23.799Z,1108.00
2019-05-29T04:05:23.775Z,1144.00
2019-05-29T04:06:23.767Z,1176.00
2019-05-29T04:07:23.765Z,1184.00
2019-05-29T04:08:23.753Z,1192.00
2019-05-29T04:09:23.745Z,1196.00
2019-05-29T04:10:23.735Z,1216.00
2019-05-29T04:11:23.727Z,1256.00
2019-05-29T04:12:23.701Z,1304.00
2019-05-29T04:13:23.689Z,1356.00
2019-05-29T04:14:23.677Z,1432.00
2019-05-29T04:15:23.681Z,1528.00
2019-05-29T04:16:23.683Z,1624.00
2019-05-29T04:17:23.647Z,1712.00
2019-05-29T04:18:23.633Z,1780.00
2019-05-29T04:19:23.625Z,1832.00
2019-05-29T04:20:23.610Z,1888.00
2019-05-29T04:21:23.605Z,1932.00
2019-05-29T04:22:23.590Z,1968.00
2019-05-29T04:23:23.574Z,1992.00
2019-05-29T04:24:23.601Z,1996.00
2019-05-29T04:25:23.556Z,2024.00
2019-05-29T04:26:23.543Z,2076.00
2019-05-29T04:27:23.547Z,2152.00
2019-05-29T04:28:23.517Z,2232.00
2019-05-29T04:29:23.532Z,2320.00
2019-05-29T04:30:23.517Z,2392.00
2019-05-29T04:31:23.485Z,2464.00
2019-05-29T04:32:23.489Z,2544.00
2019-05-29T04:33:23.467Z,2664.00
2019-05-29T04:34:23.450Z,2808.00
2019-05-29T04:35:23.437Z,2972.00
2019-05-29T04:36:23.427Z,3100.00
2019-05-29T04:37:23.425Z,3216.00
2019-05-29T04:38:23.418Z,3328.00
2019-05-29T04:39:23.392Z,3432.00
2019-05-29T04:40:23.383Z,3564.00
2019-05-29T04:41:23.371Z,3688.00
2019-05-29T04:42:23.361Z,3784.00
2019-05-29T04:43:23.356Z,3900.00
2019-05-29T04:44:23.338Z,4000.00
2019-05-29T04:45:23.327Z,4144.00
2019-05-29T04:46:23.316Z,4352.00
2019-05-29T04:47:23.306Z,4596.00
2019-05-29T04:48:23.324Z,4836.00
2019-05-29T04:49:23.320Z,5060.00
2019-05-29T04:50:23.278Z,5264.00
2019-05-29T04:51:23.255Z,5464.00
2019-05-29T04:52:23.249Z,5680.00
2019-05-29T04:53:23.233Z,5812.00
2019-05-29T04:54:23.226Z,5952.00
2019-05-29T04:55:23.244Z,6136.00
2019-05-29T04:56:23.201Z,6496.00
2019-05-29T04:57:23.192Z,6872.00
2019-05-29T04:58:23.175Z,7300.00
2019-05-29T04:59:23.174Z,7812.00
2019-05-29T05:00:23.177Z,8564.00
2019-05-29T05:01:23.139Z,9352.00
2019-05-29T05:02:23.138Z,9548.00
2019-05-29T05:03:23.122Z,9296.00
2019-05-29T05:04:23.124Z,9644.00
2019-05-29T05:05:23.109Z,8340.00
2019-05-29T05:06:23.083Z,7700.00
2019-05-29T05:07:23.168Z,7792.00
2019-05-29T05:08:23.229Z,8196.00
2019-05-29T05:09:23.079Z,8228.00
2019-05-29T05:10:23.043Z,7732.00
2019-05-29T05:11:23.049Z,7480.00
2019-05-29T05:12:23.018Z,7568.00
2019-05-29T05:13:23.014Z,7524.00
2019-05-29T05:14:22.997Z,7700.00
2019-05-29T05:15:22.998Z,8132.00
2019-05-29T05:16:22.976Z,8560.00
2019-05-29T05:17:26.182Z,8840.00
2019-05-29T05:18:22.981Z,9192.00
2019-05-29T05:19:22.960Z,10096.00
2019-05-29T05:20:22.934Z,11396.00
2019-05-29T05:21:22.920Z,12044.00
2019-05-29T05:22:22.912Z,11768.00
2019-05-29T05:23:43.916Z,13560.00
2019-05-29T05:24:22.886Z,16480.00
2019-05-29T05:25:22.874Z,20224.00
2019-05-29T05:26:22.866Z,20608.00
2019-05-29T05:27:22.859Z,27296.00
2019-05-29T05:28:22.853Z,24096.00
2019-05-29T05:29:22.825Z,14320.00
2019-05-29T05:30:22.818Z,15660.00
2019-05-29T05:31:22.800Z,18656.00
2019-05-29T05:32:22.808Z,19232.00
2019-05-29T05:33:22.835Z,20128.00
2019-05-29T05:34:22.799Z,19104.00
2019-05-29T05:35:22.759Z,19392.00
2019-05-29T05:36:22.746Z,14772.00
2019-05-29T05:37:22.755Z,15020.00
2019-05-29T05:38:22.730Z,15072.00
2019-05-29T05:39:23.227Z,16192.00
2019-05-29T05:40:22.705Z,15460.00
2019-05-29T05:41:22.693Z,15596.00
2019-05-29T05:42:22.678Z,15592.00
2019-05-29T05:43:24.491Z,14732.00
2019-05-29T05:44:22.665Z,16928.00
2019-05-29T05:45:22.656Z,14688.00
2019-05-29T05:46:24.740Z,14428.00
2019-05-29T05:47:22.647Z,14512.00
2019-05-29T05:48:22.702Z,14492.00
2019-05-29T05:49:22.596Z,14616.00
2019-05-29T05:50:22.598Z,14672.00
2019-05-29T05:51:22.603Z,14840.00
2019-05-29T05:52:22.565Z,15096.00
2019-05-29T05:53:22.557Z,15272.00
2019-05-29T05:54:22.541Z,15376.00
2019-05-29T05:55:22.540Z,15592.00
2019-05-29T05:56:22.538Z,15968.00
2019-05-29T05:57:22.514Z,16192.00
2019-05-29T05:58:22.498Z,16384.00
2019-05-29T05:59:22.502Z,16352.00
2019-05-29T06:00:22.472Z,16224.00
2019-05-29T06:01:22.474Z,16032.00
2019-05-29T06:02:22.602Z,15352.00
2019-05-29T06:03:22.494Z,14864.00
2019-05-29T06:04:22.430Z,14360.00
2019-05-29T06:05:22.418Z,13912.00
2019-05-29T06:06:22.414Z,13260.00
2019-05-29T06:07:22.422Z,12608.00
2019-05-29T06:08:22.386Z,12068.00
2019-05-29T06:09:22.384Z,11660.00
2019-05-29T06:10:22.371Z,11292.00
2019-05-29T06:11:22.361Z,11720.00
2019-05-29T06:12:22.345Z,11476.00
2019-05-29T06:13:22.324Z,11300.00
2019-05-29T06:14:22.316Z,10752.00
2019-05-29T06:15:22.308Z,10236.00
2019-05-29T06:16:22.377Z,9916.00
2019-05-29T06:17:22.286Z,9936.00
2019-05-29T06:18:22.276Z,9788.00
2019-05-29T06:19:22.264Z,9532.00
2019-05-29T06:20:22.407Z,9324.00
2019-05-29T06:21:22.235Z,9152.00
2019-05-29T06:22:22.230Z,8952.00
2019-05-29T06:23:22.227Z,8780.00
2019-05-29T06:24:22.225Z,8516.00
2019-05-29T06:25:22.207Z,8344.00
2019-05-29T06:26:22.177Z,8160.00
2019-05-29T06:27:22.172Z,8036.00
2019-05-29T06:28:22.158Z,7952.00
2019-05-29T06:29:22.154Z,7740.00
2019-05-29T06:30:22.138Z,7600.00
2019-05-29T06:31:22.122Z,7528.00
2019-05-29T06:32:22.109Z,7668.00
2019-05-29T06:33:22.208Z,7452.00
2019-05-29T06:34:22.089Z,7504.00
2019-05-29T06:35:22.090Z,7544.00
2019-05-29T06:36:22.222Z,7544.00
2019-05-29T06:37:22.060Z,7560.00
2019-05-29T06:38:22.066Z,7560.00
2019-05-29T06:39:22.032Z,7544.00
2019-05-29T06:40:22.070Z,7548.00
2019-05-29T06:41:22.014Z,7548.00
2019-05-29T06:42:22.000Z,7560.00
2019-05-29T06:43:21.989Z,7648.00
2019-05-29T06:44:21.983Z,7880.00
2019-05-29T06:45:21.964Z,8340.00
2019-05-29T06:46:21.969Z,8240.00
2019-05-29T06:47:21.949Z,7600.00
2019-05-29T06:48:40.629Z,7636.00
2019-05-29T06:49:22.919Z,7540.00
2019-05-29T06:50:21.910Z,8140.00
2019-05-29T06:51:21.901Z,8016.00
2019-05-29T06:52:21.890Z,7940.00
2019-05-29T06:53:21.879Z,7860.00
2019-05-29T06:54:21.875Z,7764.00
2019-05-29T06:55:21.862Z,7792.00
2019-05-29T06:56:21.844Z,7928.00
2019-05-29T06:57:25.794Z,8136.00
2019-05-29T06:58:21.828Z,8576.00
2019-05-29T06:59:21.812Z,9056.00
2019-05-29T07:00:34.886Z,8720.00
2019-05-29T07:01:22.788Z,8068.00
2019-05-29T07:02:21.782Z,7932.00
2019-05-29T07:03:21.774Z,8072.00
2019-05-29T07:04:21.755Z,7920.00
2019-05-29T07:05:21.742Z,8048.00
2019-05-29T07:06:21.737Z,8136.00
2019-05-29T07:07:21.724Z,8292.00
2019-05-29T07:08:37.594Z,7916.00
2019-05-29T07:09:22.700Z,7516.00
2019-05-29T07:10:21.688Z,7948.00
2019-05-29T07:11:21.675Z,8108.00
2019-05-29T07:12:21.664Z,8596.00
2019-05-29T07:13:21.661Z,9208.00
2019-05-29T07:14:21.662Z,9328.00
2019-05-29T07:15:21.634Z,8948.00
2019-05-29T07:16:21.632Z,8664.00
2019-05-29T07:17:21.616Z,8396.00
2019-05-29T07:18:21.605Z,8116.00
2019-05-29T07:19:34.370Z,8220.00
2019-05-29T07:20:22.580Z,8528.00
2019-05-29T07:21:21.566Z,8780.00
2019-05-29T07:22:21.558Z,9268.00
2019-05-29T07:23:21.565Z,9536.00
2019-05-29T07:24:21.546Z,10020.00
2019-05-29T07:25:21.530Z,10012.00
2019-05-29T07:26:21.531Z,9744.00
2019-05-29T07:27:21.496Z,9668.00
2019-05-29T07:28:21.505Z,10376.00
2019-05-29T07:29:21.476Z,11172.00
2019-05-29T07:30:21.484Z,11744.00
2019-05-29T07:31:21.465Z,11652.00
2019-05-29T07:32:21.445Z,11072.00
2019-05-29T07:33:21.433Z,11116.00
2019-05-29T07:34:21.424Z,10972.00
2019-05-29T07:35:21.409Z,10416.00
2019-05-29T07:36:21.402Z,11056.00
2019-05-29T07:37:21.406Z,11752.00
2019-05-29T07:38:21.380Z,12080.00
2019-05-29T07:39:21.366Z,11160.00
2019-05-29T07:40:21.364Z,11764.00
2019-05-29T07:41:21.344Z,12144.00
2019-05-29T07:42:21.332Z,11852.00
2019-05-29T07:43:21.315Z,11124.00
2019-05-29T07:44:21.304Z,12452.00
2019-05-29T07:45:21.292Z,11912.00
2019-05-29T07:46:21.278Z,12656.00
2019-05-29T07:47:21.277Z,11720.00
2019-05-29T07:48:21.260Z,10728.00
2019-05-29T07:49:35.871Z,10392.00
2019-05-29T07:50:22.244Z,10544.00
2019-05-29T07:51:21.228Z,10284.00
2019-05-29T07:52:21.225Z,10140.00
2019-05-29T07:53:21.204Z,10452.00
2019-05-29T07:54:21.190Z,9976.00
2019-05-29T07:55:23.668Z,10040.00
2019-05-29T07:56:22.890Z,9236.00
2019-05-29T07:57:21.166Z,8688.00
2019-05-29T07:58:21.164Z,8476.00
2019-05-29T07:59:21.194Z,8564.00
2019-05-29T08:00:21.121Z,9136.00
2019-05-29T08:01:21.112Z,9104.00
2019-05-29T08:02:21.123Z,9092.00
2019-05-29T08:03:21.086Z,9020.00
2019-05-29T08:04:21.157Z,9032.00
2019-05-29T08:05:21.064Z,9024.00
2019-05-29T08:06:21.048Z,8704.00
2019-05-29T08:07:21.043Z,8524.00
2019-05-29T08:08:21.028Z,8724.00
2019-05-29T08:09:21.041Z,8816.00
2019-05-29T08:10:21.043Z,9580.00
2019-05-29T08:11:20.997Z,10284.00
2019-05-29T08:12:20.986Z,10156.00
2019-05-29T08:13:20.976Z,9332.00
2019-05-29T08:14:20.963Z,8528.00
2019-05-29T08:15:20.960Z,8020.00
2019-05-29T08:16:20.935Z,7704.00
2019-05-29T08:17:20.928Z,8108.00
2019-05-29T08:18:20.919Z,8496.00
2019-05-29T08:19:20.966Z,8864.00
2019-05-29T08:20:20.902Z,9252.00
2019-05-29T08:21:20.906Z,10268.00
2019-05-29T08:22:33.788Z,11732.00
2019-05-29T08:23:21.859Z,12416.00
2019-05-29T08:24:24.742Z,11560.00
2019-05-29T08:25:20.862Z,10212.00
2019-05-29T08:26:20.833Z,9864.00
2019-05-29T08:27:20.808Z,9644.00
2019-05-29T08:28:20.806Z,9708.00
2019-05-29T08:29:20.788Z,9316.00
2019-05-29T08:30:20.783Z,8680.00
2019-05-29T08:31:20.771Z,7820.00
2019-05-29T08:32:20.760Z,7508.00
2019-05-29T08:33:20.773Z,7376.00
2019-05-29T08:34:20.735Z,7876.00
2019-05-29T08:35:20.727Z,7912.00
2019-05-29T08:36:20.712Z,8460.00
2019-05-29T08:37:20.699Z,9332.00
2019-05-29T08:38:20.683Z,10720.00
2019-05-29T08:39:35.572Z,13088.00
2019-05-29T08:40:21.660Z,13376.00
2019-05-29T08:41:20.730Z,13452.00
2019-05-29T08:42:23.567Z,12564.00
2019-05-29T08:43:20.663Z,11888.00
2019-05-29T08:44:20.620Z,11360.00
2019-05-29T08:45:20.600Z,10712.00
2019-05-29T08:46:20.600Z,9276.00
2019-05-29T08:47:20.584Z,8152.00
2019-05-29T08:48:20.587Z,7216.00
2019-05-29T08:49:20.586Z,6620.00
2019-05-29T08:50:20.559Z,6440.00
2019-05-29T08:51:20.537Z,6772.00
2019-05-29T08:52:20.527Z,7796.00
2019-05-29T08:53:20.531Z,8444.00
2019-05-29T08:54:23.826Z,8800.00
2019-05-29T08:55:20.513Z,8900.00
2019-05-29T08:56:20.483Z,8980.00
2019-05-29T08:57:20.472Z,9664.00
2019-05-29T08:58:20.461Z,9604.00
2019-05-29T08:59:20.450Z,10568.00
2019-05-29T09:00:20.435Z,10612.00
2019-05-29T09:01:20.419Z,10660.00
2019-05-29T09:02:20.414Z,11444.00
2019-05-29T09:03:20.407Z,10848.00
2019-05-29T09:04:20.395Z,10748.00
2019-05-29T09:05:20.386Z,11268.00
2019-05-29T09:06:20.392Z,11444.00
2019-05-29T09:07:20.360Z,11184.00
2019-05-29T09:08:20.341Z,10336.00
2019-05-29T09:09:20.333Z,9184.00
2019-05-29T09:10:20.319Z,9168.00
2019-05-29T09:11:20.325Z,7620.00
2019-05-29T09:12:20.311Z,7312.00
2019-05-29T09:13:20.285Z,7092.00
2019-05-29T09:14:20.285Z,7136.00
2019-05-29T09:15:21.738Z,7888.00
2019-05-29T09:16:20.272Z,8040.00
2019-05-29T09:17:20.241Z,8132.00
2019-05-29T09:18:21.526Z,8272.00
2019-05-29T09:19:21.072Z,8552.00
2019-05-29T09:20:32.056Z,8568.00
2019-05-29T09:21:21.228Z,9056.00
2019-05-29T09:22:20.993Z,9928.00
2019-05-29T09:23:20.922Z,10732.00
2019-05-29T09:24:20.908Z,10444.00
2019-05-29T09:25:21.172Z,10444.00
2019-05-29T09:26:23.889Z,10536.00
2019-05-29T09:27:21.270Z,10836.00
2019-05-29T09:28:21.787Z,11432.00
2019-05-29T09:29:23.311Z,12416.00
2019-05-29T09:30:20.347Z,11504.00
2019-05-29T09:31:20.379Z,9856.00
2019-05-29T09:32:40.887Z,9364.00
2019-05-29T09:33:21.857Z,8520.00
2019-05-29T09:34:20.576Z,8028.00
2019-05-29T09:35:21.568Z,7020.00
2019-05-29T09:36:20.728Z,6740.00
2019-05-29T09:37:20.481Z,6512.00
2019-05-29T09:38:20.979Z,6316.00
2019-05-29T09:39:21.066Z,6728.00
2019-05-29T09:40:20.999Z,7632.00
2019-05-29T09:41:21.707Z,8396.00
2019-05-29T09:42:20.700Z,9148.00
2019-05-29T09:43:23.148Z,10204.00
2019-05-29T09:44:36.018Z,11476.00
2019-05-29T09:45:21.560Z,12540.00
2019-05-29T09:46:20.236Z,13404.00
2019-05-29T09:47:20.273Z,13092.00
2019-05-29T09:48:23.325Z,11892.00
2019-05-29T09:49:21.814Z,10236.00
2019-05-29T09:50:22.742Z,9868.00
2019-05-29T09:51:21.558Z,9144.00
2019-05-29T09:52:19.845Z,8156.00
2019-05-29T09:53:19.838Z,7280.00
2019-05-29T09:54:19.947Z,7076.00
2019-05-29T09:55:19.828Z,5752.00
2019-05-29T09:56:19.802Z,5536.00
2019-05-29T09:57:19.788Z,5664.00
2019-05-29T09:58:19.854Z,6812.00
2019-05-29T09:59:19.765Z,6664.00
2019-05-29T10:00:19.767Z,5944.00
2019-05-29T10:01:24.133Z,6556.00
2019-05-29T10:02:20.746Z,6592.00
2019-05-29T10:03:19.717Z,6740.00
2019-05-29T10:04:19.709Z,7016.00
2019-05-29T10:05:19.700Z,7444.00
2019-05-29T10:06:19.691Z,7432.00
2019-05-29T10:07:19.698Z,7100.00
2019-05-29T10:08:19.669Z,7200.00
2019-05-29T10:09:19.654Z,7400.00
2019-05-29T10:10:19.667Z,7972.00
2019-05-29T10:11:19.634Z,9460.00
2019-05-29T10:12:19.705Z,10092.00
2019-05-29T10:13:19.612Z,10800.00
2019-05-29T10:14:19.600Z,9904.00
2019-05-29T10:15:19.586Z,10608.00
2019-05-29T10:16:19.605Z,10092.00
2019-05-29T10:17:19.571Z,9020.00
2019-05-29T10:18:31.797Z,8368.00
2019-05-29T10:19:20.541Z,8012.00
2019-05-29T10:20:19.530Z,7628.00
2019-05-29T10:21:19.521Z,7424.00
2019-05-29T10:22:19.509Z,7132.00
2019-05-29T10:23:20.168Z,6924.00
2019-05-29T10:24:19.479Z,6420.00
2019-05-29T10:25:19.467Z,5720.00
2019-05-29T10:26:19.455Z,6328.00
2019-05-29T10:27:19.458Z,6336.00
2019-05-29T10:28:19.438Z,6488.00
2019-05-29T10:29:19.439Z,6876.00
2019-05-29T10:30:19.423Z,7584.00
2019-05-29T10:31:19.407Z,7788.00
2019-05-29T10:32:19.394Z,7548.00
2019-05-29T10:33:19.397Z,6620.00
2019-05-29T10:34:19.378Z,6972.00
2019-05-29T10:35:19.360Z,7180.00
2019-05-29T10:36:19.383Z,7764.00
2019-05-29T10:37:19.395Z,7780.00
2019-05-29T10:38:19.336Z,7780.00
2019-05-29T10:39:19.340Z,7660.00
2019-05-29T10:40:19.310Z,6656.00
2019-05-29T10:41:19.312Z,6540.00
2019-05-29T10:42:20.763Z,7092.00
2019-05-29T10:43:33.237Z,6868.00
2019-05-29T10:44:20.279Z,6960.00
2019-05-29T10:45:19.304Z,6384.00
2019-05-29T10:46:19.230Z,5768.00
2019-05-29T10:47:19.224Z,5836.00
2019-05-29T10:48:19.212Z,6016.00
2019-05-29T10:49:19.194Z,7004.00
2019-05-29T10:50:19.193Z,7348.00
2019-05-29T10:51:19.243Z,7336.00
2019-05-29T10:52:19.165Z,7868.00
2019-05-29T10:53:19.209Z,8828.00
2019-05-29T10:54:19.143Z,7752.00
2019-05-29T10:55:19.131Z,7468.00
2019-05-29T10:56:21.195Z,7696.00
2019-05-29T10:57:19.107Z,7288.00
2019-05-29T10:58:19.122Z,7652.00
2019-05-29T10:59:19.085Z,7060.00
2019-05-29T11:00:19.084Z,6492.00
2019-05-29T11:01:19.091Z,6504.00
2019-05-29T11:02:19.068Z,7060.00
2019-05-29T11:03:19.061Z,7040.00
2019-05-29T11:04:19.029Z,7896.00
2019-05-29T11:05:19.058Z,7340.00
2019-05-29T11:06:19.011Z,6284.00
2019-05-29T11:07:19.007Z,5576.00
2019-05-29T11:08:18.984Z,6384.00
2019-05-29T11:09:18.972Z,6864.00
2019-05-29T11:10:18.963Z,6880.00
2019-05-29T11:11:18.951Z,6752.00
2019-05-29T11:12:18.937Z,6612.00
2019-05-29T11:13:18.931Z,6596.00
2019-05-29T11:14:18.916Z,6508.00
2019-05-29T11:15:21.668Z,6372.00
2019-05-29T11:16:18.889Z,6212.00
2019-05-29T11:17:18.883Z,6080.00
2019-05-29T11:18:18.874Z,6008.00
2019-05-29T11:19:18.859Z,5944.00
2019-05-29T11:20:18.848Z,5984.00
2019-05-29T11:21:18.841Z,6076.00
2019-05-29T11:22:26.067Z,6172.00
2019-05-29T11:23:19.826Z,6096.00
2019-05-29T11:24:18.811Z,6128.00
2019-05-29T11:25:23.536Z,6424.00
2019-05-29T11:26:19.780Z,6668.00
2019-05-29T11:27:18.767Z,7160.00
2019-05-29T11:28:18.780Z,7536.00
2019-05-29T11:29:18.757Z,7356.00
2019-05-29T11:30:18.755Z,7068.00
2019-05-29T11:31:18.727Z,6916.00
2019-05-29T11:32:18.719Z,6712.00
2019-05-29T11:33:18.720Z,6336.00
2019-05-29T11:34:18.685Z,5996.00
2019-05-29T11:35:18.682Z,5724.00
2019-05-29T11:36:18.705Z,5600.00
2019-05-29T11:37:18.659Z,5712.00
2019-05-29T11:38:18.643Z,5788.00
2019-05-29T11:39:18.659Z,5900.00
2019-05-29T11:40:18.628Z,5924.00
2019-05-29T11:41:26.217Z,5800.00
2019-05-29T11:42:27.527Z,6696.00
2019-05-29T11:43:19.604Z,5588.00
2019-05-29T11:44:18.580Z,5736.00
2019-05-29T11:45:18.574Z,6032.00
2019-05-29T11:46:18.609Z,6768.00
2019-05-29T11:47:18.613Z,5872.00
2019-05-29T11:48:18.533Z,5316.00
2019-05-29T11:49:18.517Z,4776.00
2019-05-29T11:50:20.050Z,4700.00
2019-05-29T11:51:18.500Z,4688.00
2019-05-29T11:52:24.551Z,5616.00
2019-05-29T11:53:19.537Z,5764.00
2019-05-29T11:54:18.471Z,5676.00
2019-05-29T11:55:18.452Z,5568.00
2019-05-29T11:56:18.438Z,5472.00
2019-05-29T11:57:18.424Z,5376.00
2019-05-29T11:58:30.526Z,5284.00
2019-05-29T11:59:19.413Z,5204.00
2019-05-29T12:00:20.610Z,5188.00
2019-05-29T12:01:18.381Z,5256.00
2019-05-29T12:02:18.406Z,5520.00
2019-05-29T12:03:18.378Z,5680.00
2019-05-29T12:04:26.489Z,6032.00
2019-05-29T12:05:19.538Z,6500.00
2019-05-29T12:06:18.326Z,7164.00
2019-05-29T12:07:18.317Z,7232.00
2019-05-29T12:08:18.321Z,6364.00
2019-05-29T12:09:32.144Z,6428.00
2019-05-29T12:10:19.281Z,5560.00
2019-05-29T12:11:18.268Z,5320.00
2019-05-29T12:12:18.280Z,5484.00
2019-05-29T12:13:18.269Z,6144.00
2019-05-29T12:14:18.233Z,5896.00
2019-05-29T12:15:18.923Z,5264.00
2019-05-29T12:16:18.212Z,5652.00
2019-05-29T12:17:18.199Z,5468.00
2019-05-29T12:18:23.945Z,5468.00